sensor_id;sensor_type;location;lat;lon;timestamp;pressure;altitude;pressure_sealevel;temperature;humidity
64080;BME280;51042;49.696;10.808;2022-07-23T00:02:24;98380.19;;;22.25;54.40
64080;BME280;51042;49.696;10.808;2022-07-23T00:04:49;98373.56;;;22.28;54.52
64080;BME280;51042;49.696;10.808;2022-07-23T00:07:14;98370.25;;;22.29;54.91
64080;BME280;51042;49.696;10.808;2022-07-23T00:09:40;98363.66;;;22.27;54.30
64080;BME280;51042;49.696;10.808;2022-07-23T00:12:05;98364.41;;;22.27;54.95
64080;BME280;51042;49.696;10.808;2022-07-23T00:14:30;98360.34;;;22.28;54.95
64080;BME280;51042;49.696;10.808;2022-07-23T00:16:56;98368.22;;;22.24;55.51
64080;BME280;51042;49.696;10.808;2022-07-23T00:19:21;98360.69;;;22.08;56.97
64080;BME280;51042;49.696;10.808;2022-07-23T00:21:47;98355.91;;;21.86;57.12
64080;BME280;51042;49.696;10.808;2022-07-23T00:24:12;98360.00;;;21.74;57.40
64080;BME280;51042;49.696;10.808;2022-07-23T00:26:37;98358.47;;;21.79;56.86
64080;BME280;51042;49.696;10.808;2022-07-23T00:29:02;98357.69;;;21.84;56.59
64080;BME280;51042;49.696;10.808;2022-07-23T00:31:28;98355.91;;;21.86;56.39
64080;BME280;51042;49.696;10.808;2022-07-23T00:33:53;98360.94;;;21.93;56.53
64080;BME280;51042;49.696;10.808;2022-07-23T00:36:21;98355.13;;;21.97;56.28
64080;BME280;51042;49.696;10.808;2022-07-23T00:38:48;98348.03;;;21.96;56.96
64080;BME280;51042;49.696;10.808;2022-07-23T00:41:14;98339.34;;;21.94;57.01
64080;BME280;51042;49.696;10.808;2022-07-23T00:43:39;98332.81;;;21.86;57.59
64080;BME280;51042;49.696;10.808;2022-07-23T00:46:04;98333.81;;;21.83;57.65
64080;BME280;51042;49.696;10.808;2022-07-23T00:48:30;98327.22;;;21.80;58.44
64080;BME280;51042;49.696;10.808;2022-07-23T00:50:55;98319.59;;;21.81;58.43
64080;BME280;51042;49.696;10.808;2022-07-23T00:53:20;98319.09;;;21.77;58.23
64080;BME280;51042;49.696;10.808;2022-07-23T00:55:46;98311.25;;;21.70;58.46
64080;BME280;51042;49.696;10.808;2022-07-23T00:58:12;98308.44;;;21.70;57.63
64080;BME280;51042;49.696;10.808;2022-07-23T01:00:38;98303.63;;;21.70;57.33
64080;BME280;51042;49.696;10.808;2022-07-23T01:03:03;98290.41;;;21.71;57.73
64080;BME280;51042;49.696;10.808;2022-07-23T01:05:28;98284.06;;;21.70;57.69
64080;BME280;51042;49.696;10.808;2022-07-23T01:07:54;98286.13;;;21.64;57.78
64080;BME280;51042;49.696;10.808;2022-07-23T01:10:19;98286.41;;;21.61;57.59
64080;BME280;51042;49.696;10.808;2022-07-23T01:13:06;98287.94;;;21.62;57.99
64080;BME280;51042;49.696;10.808;2022-07-23T01:15:34;98294.78;;;21.61;57.50
64080;BME280;51042;49.696;10.808;2022-07-23T01:18:01;98291.25;;;21.54;57.95
64080;BME280;51042;49.696;10.808;2022-07-23T01:20:28;98295.59;;;21.50;58.05
64080;BME280;51042;49.696;10.808;2022-07-23T01:22:53;98294.06;;;21.49;57.87
64080;BME280;51042;49.696;10.808;2022-07-23T01:25:19;98297.84;;;21.46;58.66
64080;BME280;51042;49.696;10.808;2022-07-23T01:27:45;98297.63;;;21.38;59.91
64080;BME280;51042;49.696;10.808;2022-07-23T01:30:11;98290.53;;;21.32;60.63
64080;BME280;51042;49.696;10.808;2022-07-23T01:32:37;98291.31;;;21.32;60.37
64080;BME280;51042;49.696;10.808;2022-07-23T01:35:03;98293.06;;;21.35;60.38
64080;BME280;51042;49.696;10.808;2022-07-23T01:37:29;98287.47;;;21.35;59.93
64080;BME280;51042;49.696;10.808;2022-07-23T01:39:55;98290.53;;;21.32;60.23
64080;BME280;51042;49.696;10.808;2022-07-23T01:42:20;98294.31;;;21.34;60.62
64080;BME280;51042;49.696;10.808;2022-07-23T01:44:45;98296.63;;;21.36;60.11
64080;BME280;51042;49.696;10.808;2022-07-23T01:47:11;98295.34;;;21.37;60.68
64080;BME280;51042;49.696;10.808;2022-07-23T01:49:36;98296.63;;;21.36;60.63
64080;BME280;51042;49.696;10.808;2022-07-23T01:52:02;98300.66;;;21.35;61.03
64080;BME280;51042;49.696;10.808;2022-07-23T01:54:31;98295.09;;;21.35;61.26
64080;BME280;51042;49.696;10.808;2022-07-23T01:56:58;98311.06;;;21.34;61.25
64080;BME280;51042;49.696;10.808;2022-07-23T01:59:24;98325.56;;;21.22;62.10
64080;BME280;51042;49.696;10.808;2022-07-23T02:01:50;98325.31;;;21.14;62.44
64080;BME280;51042;49.696;10.808;2022-07-23T02:04:16;98333.19;;;21.15;62.42
64080;BME280;51042;49.696;10.808;2022-07-23T02:06:42;98340.53;;;21.18;62.03
64080;BME280;51042;49.696;10.808;2022-07-23T02:09:07;98332.66;;;21.17;62.50
64080;BME280;51042;49.696;10.808;2022-07-23T02:11:33;98320.25;;;21.18;62.78
64080;BME280;51042;49.696;10.808;2022-07-23T02:13:58;98319.97;;;21.22;62.65
64080;BME280;51042;49.696;10.808;2022-07-23T02:16:24;98323.53;;;21.16;62.69
64080;BME280;51042;49.696;10.808;2022-07-23T02:18:49;98320.25;;;21.18;62.34
64080;BME280;51042;49.696;10.808;2022-07-23T02:21:14;98310.84;;;21.15;62.36
64080;BME280;51042;49.696;10.808;2022-07-23T02:23:40;98301.19;;;21.11;62.59
64080;BME280;51042;49.696;10.808;2022-07-23T02:26:05;98314.38;;;20.94;63.17
64080;BME280;51042;49.696;10.808;2022-07-23T02:28:30;98307.81;;;20.91;62.73
64080;BME280;51042;49.696;10.808;2022-07-23T02:30:56;98295.63;;;20.66;63.39
64080;BME280;51042;49.696;10.808;2022-07-23T02:33:21;98287.75;;;20.48;63.26
64080;BME280;51042;49.696;10.808;2022-07-23T02:35:46;98282.19;;;20.54;63.28
64080;BME280;51042;49.696;10.808;2022-07-23T02:38:12;98282.16;;;20.48;64.31
64080;BME280;51042;49.696;10.808;2022-07-23T02:40:37;98275.31;;;20.44;63.61
64080;BME280;51042;49.696;10.808;2022-07-23T02:43:02;98271.25;;;20.45;63.29
64080;BME280;51042;49.696;10.808;2022-07-23T02:45:28;98262.13;;;20.50;63.57
64080;BME280;51042;49.696;10.808;2022-07-23T02:47:53;98261.13;;;20.53;63.71
64080;BME280;51042;49.696;10.808;2022-07-23T02:50:18;98250.97;;;20.50;62.83
64080;BME280;51042;49.696;10.808;2022-07-23T02:52:44;98250.25;;;20.49;64.18
64080;BME280;51042;49.696;10.808;2022-07-23T02:55:09;98246.94;;;20.51;63.80
64080;BME280;51042;49.696;10.808;2022-07-23T02:57:35;98259.34;;;20.50;63.48
64080;BME280;51042;49.696;10.808;2022-07-23T03:00:01;98256.56;;;20.50;62.97
64080;BME280;51042;49.696;10.808;2022-07-23T03:02:26;98255.28;;;20.45;63.42
64080;BME280;51042;49.696;10.808;2022-07-23T03:04:52;98262.38;;;20.35;63.50
64080;BME280;51042;49.696;10.808;2022-07-23T03:07:17;98267.97;;;20.35;63.87
64080;BME280;51042;49.696;10.808;2022-07-23T03:09:43;98263.66;;;20.40;64.44
64080;BME280;51042;49.696;10.808;2022-07-23T03:12:08;98259.81;;;20.31;64.97
64080;BME280;51042;49.696;10.808;2022-07-23T03:14:34;98253.72;;;20.27;65.37
64080;BME280;51042;49.696;10.808;2022-07-23T03:16:59;98265.88;;;20.19;65.39
64080;BME280;51042;49.696;10.808;2022-07-23T03:19:27;98279.28;;;20.15;65.65
64080;BME280;51042;49.696;10.808;2022-07-23T03:21:52;98271.94;;;20.12;65.46
64080;BME280;51042;49.696;10.808;2022-07-23T03:24:17;98274.94;;;20.03;65.47
64080;BME280;51042;49.696;10.808;2022-07-23T03:26:43;98270.38;;;20.00;65.74
64080;BME280;51042;49.696;10.808;2022-07-23T03:29:08;98267.59;;;20.00;65.48
64080;BME280;51042;49.696;10.808;2022-07-23T03:31:34;98271.38;;;19.96;66.08
64080;BME280;51042;49.696;10.808;2022-07-23T03:34:00;98280.75;;;19.93;66.20
64080;BME280;51042;49.696;10.808;2022-07-23T03:36:25;98276.44;;;19.92;65.61
64080;BME280;51042;49.696;10.808;2022-07-23T03:38:51;98281.72;;;19.90;65.96
64080;BME280;51042;49.696;10.808;2022-07-23T03:41:17;98282.25;;;19.89;65.93
64080;BME280;51042;49.696;10.808;2022-07-23T03:43:43;98280.94;;;19.84;66.74
64080;BME280;51042;49.696;10.808;2022-07-23T03:46:08;98283.50;;;19.82;67.03
64080;BME280;51042;49.696;10.808;2022-07-23T03:48:34;98291.06;;;19.76;67.01
64080;BME280;51042;49.696;10.808;2022-07-23T03:50:59;98294.34;;;19.75;67.06
64080;BME280;51042;49.696;10.808;2022-07-23T03:53:25;98290.78;;;19.74;67.04
64080;BME280;51042;49.696;10.808;2022-07-23T03:55:50;98284.44;;;19.74;67.03
64080;BME280;51042;49.696;10.808;2022-07-23T03:58:15;98285.50;;;19.76;66.49
64080;BME280;51042;49.696;10.808;2022-07-23T04:00:41;98298.66;;;19.81;66.47
64080;BME280;51042;49.696;10.808;2022-07-23T04:03:06;98295.13;;;19.81;66.24
64080;BME280;51042;49.696;10.808;2022-07-23T04:05:31;98302.41;;;19.73;66.93
64080;BME280;51042;49.696;10.808;2022-07-23T04:07:57;98294.34;;;19.75;67.23
64080;BME280;51042;49.696;10.808;2022-07-23T04:10:22;98303.19;;;19.79;66.78
64080;BME280;51042;49.696;10.808;2022-07-23T04:12:47;98305.03;;;19.87;66.66
64080;BME280;51042;49.696;10.808;2022-07-23T04:15:12;98311.88;;;19.92;67.17
64080;BME280;51042;49.696;10.808;2022-07-23T04:17:38;98301.25;;;19.96;66.60
64080;BME280;51042;49.696;10.808;2022-07-23T04:20:03;98311.41;;;20.05;66.43
64080;BME280;51042;49.696;10.808;2022-07-23T04:22:29;98315.28;;;20.24;65.84
64080;BME280;51042;49.696;10.808;2022-07-23T04:24:54;98323.97;;;20.43;64.74
64080;BME280;51042;49.696;10.808;2022-07-23T04:27:19;98322.47;;;20.64;63.57
64080;BME280;51042;49.696;10.808;2022-07-23T04:29:45;98320.97;;;20.79;63.03
64080;BME280;51042;49.696;10.808;2022-07-23T04:32:10;98325.16;;;21.97;59.49
64080;BME280;51042;49.696;10.808;2022-07-23T04:34:35;98321.81;;;23.52;55.33
64080;BME280;51042;49.696;10.808;2022-07-23T04:37:01;98318.59;;;24.85;51.84
64080;BME280;51042;49.696;10.808;2022-07-23T04:39:26;98319.44;;;25.70;49.74
64080;BME280;51042;49.696;10.808;2022-07-23T04:41:51;98318.75;;;26.16;48.38
64080;BME280;51042;49.696;10.808;2022-07-23T04:44:16;98332.81;;;26.29;48.20
64080;BME280;51042;49.696;10.808;2022-07-23T04:46:42;98323.81;;;25.39;50.02
64080;BME280;51042;49.696;10.808;2022-07-23T04:49:07;98317.38;;;24.05;52.81
64080;BME280;51042;49.696;10.808;2022-07-23T04:51:32;98328.19;;;23.77;54.12
64080;BME280;51042;49.696;10.808;2022-07-23T04:53:58;98325.69;;;24.54;52.11
64080;BME280;51042;49.696;10.808;2022-07-23T04:56:23;98324.16;;;24.71;50.79
64080;BME280;51042;49.696;10.808;2022-07-23T04:58:48;98320.63;;;24.09;51.92
64080;BME280;51042;49.696;10.808;2022-07-23T05:01:14;98327.69;;;23.48;54.61
64080;BME280;51042;49.696;10.808;2022-07-23T05:03:39;98337.94;;;22.81;55.85
64080;BME280;51042;49.696;10.808;2022-07-23T05:06:04;98341.75;;;22.36;57.54
64080;BME280;51042;49.696;10.808;2022-07-23T05:08:30;98339.47;;;22.82;56.55
64080;BME280;51042;49.696;10.808;2022-07-23T05:10:55;98337.44;;;23.90;53.31
64080;BME280;51042;49.696;10.808;2022-07-23T05:13:20;98333.91;;;24.84;51.19
64080;BME280;51042;49.696;10.808;2022-07-23T05:15:46;98338.47;;;25.77;49.01
64080;BME280;51042;49.696;10.808;2022-07-23T05:18:11;98354.97;;;26.93;46.27
64080;BME280;51042;49.696;10.808;2022-07-23T05:20:37;98363.41;;;27.84;44.50
64080;BME280;51042;49.696;10.808;2022-07-23T05:23:02;98363.97;;;28.54;43.37
64080;BME280;51042;49.696;10.808;2022-07-23T05:25:28;98353.09;;;29.40;41.43
64080;BME280;51042;49.696;10.808;2022-07-23T05:27:53;98360.94;;;29.03;42.06
64080;BME280;51042;49.696;10.808;2022-07-23T05:30:19;98359.50;;;27.38;45.81
64080;BME280;51042;49.696;10.808;2022-07-23T05:32:44;98355.94;;;26.49;48.48
64080;BME280;51042;49.696;10.808;2022-07-23T05:35:09;98354.84;;;26.52;48.69
64080;BME280;51042;49.696;10.808;2022-07-23T05:37:35;98356.31;;;26.06;49.33
64080;BME280;51042;49.696;10.808;2022-07-23T05:40:04;98367.31;;;25.64;50.33
64080;BME280;51042;49.696;10.808;2022-07-23T05:42:32;98356.56;;;25.36;51.09
64080;BME280;51042;49.696;10.808;2022-07-23T05:45:02;98362.56;;;25.59;51.63
64080;BME280;51042;49.696;10.808;2022-07-23T05:47:27;98359.53;;;26.23;49.69
64080;BME280;51042;49.696;10.808;2022-07-23T05:49:53;98377.69;;;25.56;50.78
64080;BME280;51042;49.696;10.808;2022-07-23T05:52:18;98375.19;;;25.20;51.89
64080;BME280;51042;49.696;10.808;2022-07-23T05:54:43;98379.03;;;25.04;53.07
64080;BME280;51042;49.696;10.808;2022-07-23T05:57:09;98385.34;;;24.92;53.73
64080;BME280;51042;49.696;10.808;2022-07-23T05:59:34;98395.66;;;24.84;53.26
64080;BME280;51042;49.696;10.808;2022-07-23T06:01:59;98406.06;;;24.70;53.33
64080;BME280;51042;49.696;10.808;2022-07-23T06:04:25;98409.03;;;24.59;53.48
64080;BME280;51042;49.696;10.808;2022-07-23T06:06:50;98401.91;;;24.58;54.12
64080;BME280;51042;49.696;10.808;2022-07-23T06:09:16;98409.78;;;24.40;55.03
64080;BME280;51042;49.696;10.808;2022-07-23T06:11:41;98419.38;;;24.26;55.59
64080;BME280;51042;49.696;10.808;2022-07-23T06:14:06;98415.25;;;25.85;51.53
64080;BME280;51042;49.696;10.808;2022-07-23T06:16:32;98420.03;;;27.57;46.66
64080;BME280;51042;49.696;10.808;2022-07-23T06:18:57;98410.06;;;28.85;42.82
64080;BME280;51042;49.696;10.808;2022-07-23T06:21:22;98404.56;;;29.69;41.31
64080;BME280;51042;49.696;10.808;2022-07-23T06:23:48;98411.53;;;29.45;41.69
64080;BME280;51042;49.696;10.808;2022-07-23T06:26:13;98416.19;;;28.68;42.69
64080;BME280;51042;49.696;10.808;2022-07-23T06:28:38;98418.31;;;29.42;41.34
64080;BME280;51042;49.696;10.808;2022-07-23T06:31:04;98422.59;;;29.20;41.50
64080;BME280;51042;49.696;10.808;2022-07-23T06:33:29;98427.03;;;28.41;43.22
64080;BME280;51042;49.696;10.808;2022-07-23T06:35:54;98424.25;;;28.57;43.37
64080;BME280;51042;49.696;10.808;2022-07-23T06:38:19;98431.63;;;28.60;43.43
64080;BME280;51042;49.696;10.808;2022-07-23T06:40:45;98426.44;;;29.76;41.13
64080;BME280;51042;49.696;10.808;2022-07-23T06:43:10;98434.50;;;30.32;39.51
64080;BME280;51042;49.696;10.808;2022-07-23T06:45:36;98437.69;;;30.36;39.30
64080;BME280;51042;49.696;10.808;2022-07-23T06:48:01;98444.47;;;29.19;42.44
64080;BME280;51042;49.696;10.808;2022-07-23T06:50:28;98447.16;;;28.46;43.67
64080;BME280;51042;49.696;10.808;2022-07-23T06:52:53;98454.59;;;28.07;45.05
64080;BME280;51042;49.696;10.808;2022-07-23T06:55:18;98452.25;;;27.28;47.11
64080;BME280;51042;49.696;10.808;2022-07-23T06:57:44;98457.88;;;26.81;48.55
64080;BME280;51042;49.696;10.808;2022-07-23T07:00:09;98454.22;;;26.60;48.97
64080;BME280;51042;49.696;10.808;2022-07-23T07:02:35;98460.31;;;26.24;50.10
64080;BME280;51042;49.696;10.808;2022-07-23T07:05:01;98456.06;;;25.91;50.69
64080;BME280;51042;49.696;10.808;2022-07-23T07:07:26;98445.38;;;25.39;51.44
64080;BME280;51042;49.696;10.808;2022-07-23T07:09:51;98470.88;;;24.91;52.78
64080;BME280;51042;49.696;10.808;2022-07-23T07:12:17;98475.94;;;24.55;53.63
64080;BME280;51042;49.696;10.808;2022-07-23T07:14:42;98482.59;;;24.27;55.30
64080;BME280;51042;49.696;10.808;2022-07-23T07:17:07;98486.59;;;24.08;56.67
64080;BME280;51042;49.696;10.808;2022-07-23T07:19:32;98508.81;;;23.76;59.97
64080;BME280;51042;49.696;10.808;2022-07-23T07:21:58;98502.50;;;23.34;62.21
64080;BME280;51042;49.696;10.808;2022-07-23T07:24:23;98505.03;;;22.91;63.35
64080;BME280;51042;49.696;10.808;2022-07-23T07:26:49;98513.31;;;22.50;66.47
64080;BME280;51042;49.696;10.808;2022-07-23T07:29:15;98509.06;;;22.27;68.88
64080;BME280;51042;49.696;10.808;2022-07-23T07:31:40;98503.47;;;21.93;70.06
64080;BME280;51042;49.696;10.808;2022-07-23T07:34:05;98509.34;;;21.73;70.57
64080;BME280;51042;49.696;10.808;2022-07-23T07:36:31;98521.78;;;21.50;72.79
64080;BME280;51042;49.696;10.808;2022-07-23T07:38:57;98513.34;;;21.33;73.51
64080;BME280;51042;49.696;10.808;2022-07-23T07:41:23;98532.41;;;21.35;73.83
64080;BME280;51042;49.696;10.808;2022-07-23T07:43:49;98527.84;;;21.37;74.41
64080;BME280;51042;49.696;10.808;2022-07-23T07:46:15;98523.53;;;21.47;74.39
64080;BME280;51042;49.696;10.808;2022-07-23T07:48:40;98525.84;;;21.49;75.08
64080;BME280;51042;49.696;10.808;2022-07-23T07:51:06;98524.56;;;21.50;74.55
64080;BME280;51042;49.696;10.808;2022-07-23T07:53:31;98528.91;;;21.51;74.42
64080;BME280;51042;49.696;10.808;2022-07-23T07:55:56;98535.47;;;21.59;74.87
64080;BME280;51042;49.696;10.808;2022-07-23T07:58:22;98520.25;;;21.71;73.63
64080;BME280;51042;49.696;10.808;2022-07-23T08:00:47;98523.03;;;21.77;73.52
64080;BME280;51042;49.696;10.808;2022-07-23T08:03:12;98529.41;;;21.77;74.14
64080;BME280;51042;49.696;10.808;2022-07-23T08:05:38;98537.28;;;21.73;73.80
64080;BME280;51042;49.696;10.808;2022-07-23T08:08:03;98523.53;;;21.75;74.72
64080;BME280;51042;49.696;10.808;2022-07-23T08:10:29;98527.88;;;21.82;73.23
64080;BME280;51042;49.696;10.808;2022-07-23T08:12:56;98529.16;;;21.86;74.51
64080;BME280;51042;49.696;10.808;2022-07-23T08:15:23;98535.50;;;21.92;74.08
64080;BME280;51042;49.696;10.808;2022-07-23T08:17:49;98515.41;;;22.11;74.69
64080;BME280;51042;49.696;10.808;2022-07-23T08:20:16;98526.59;;;22.22;72.50
64080;BME280;51042;49.696;10.808;2022-07-23T08:22:47;98526.34;;;22.25;73.44
64080;BME280;51042;49.696;10.808;2022-07-23T08:25:19;98529.59;;;22.35;73.31
64080;BME280;51042;49.696;10.808;2022-07-23T08:27:47;98532.91;;;22.39;72.80
64080;BME280;51042;49.696;10.808;2022-07-23T08:30:13;98533.31;;;22.71;72.08
64080;BME280;51042;49.696;10.808;2022-07-23T08:35:32;98539.72;;;23.24;70.03
64080;BME280;51042;49.696;10.808;2022-07-23T08:38:02;98528.03;;;23.60;70.16
64080;BME280;51042;49.696;10.808;2022-07-23T08:40:30;98537.56;;;24.12;67.37
64080;BME280;51042;49.696;10.808;2022-07-23T08:42:57;98545.31;;;24.30;65.73
64080;BME280;51042;49.696;10.808;2022-07-23T08:45:23;98553.91;;;24.62;65.31
64080;BME280;51042;49.696;10.808;2022-07-23T08:47:50;98558.00;;;24.61;63.96
64080;BME280;51042;49.696;10.808;2022-07-23T08:50:18;98556.28;;;24.28;66.27
64080;BME280;51042;49.696;10.808;2022-07-23T08:52:45;98560.84;;;24.55;65.62
64080;BME280;51042;49.696;10.808;2022-07-23T08:55:10;98565.22;;;24.75;64.32
64080;BME280;51042;49.696;10.808;2022-07-23T08:57:37;98566.13;;;24.89;63.95
64080;BME280;51042;49.696;10.808;2022-07-23T09:00:03;98567.72;;;25.03;62.41
64080;BME280;51042;49.696;10.808;2022-07-23T09:02:29;98563.03;;;25.11;62.21
64080;BME280;51042;49.696;10.808;2022-07-23T09:04:55;98569.56;;;25.00;63.02
64080;BME280;51042;49.696;10.808;2022-07-23T09:07:20;98565.69;;;25.41;62.05
64080;BME280;51042;49.696;10.808;2022-07-23T09:09:45;98567.28;;;26.06;59.71
64080;BME280;51042;49.696;10.808;2022-07-23T09:12:10;98576.19;;;26.23;58.97
64080;BME280;51042;49.696;10.808;2022-07-23T09:14:37;98573.22;;;25.70;60.42
64080;BME280;51042;49.696;10.808;2022-07-23T09:17:14;98587.03;;;25.31;61.09
64080;BME280;51042;49.696;10.808;2022-07-23T09:19:42;98583.44;;;24.93;62.41
64080;BME280;51042;49.696;10.808;2022-07-23T09:22:21;98584.38;;;25.01;62.55
64080;BME280;51042;49.696;10.808;2022-07-23T09:25:04;98593.97;;;25.48;61.73
64080;BME280;51042;49.696;10.808;2022-07-23T09:27:48;98594.22;;;26.01;59.44
64080;BME280;51042;49.696;10.808;2022-07-23T09:30:14;98587.50;;;26.04;58.80
64080;BME280;51042;49.696;10.808;2022-07-23T09:32:41;98588.00;;;26.21;58.53
64080;BME280;51042;49.696;10.808;2022-07-23T09:35:06;98593.63;;;26.21;57.41
64080;BME280;51042;49.696;10.808;2022-07-23T09:37:32;98595.59;;;25.94;58.23
64080;BME280;51042;49.696;10.808;2022-07-23T09:40:04;98590.97;;;25.97;57.87
64080;BME280;51042;49.696;10.808;2022-07-23T09:42:32;98589.97;;;25.94;57.77
64080;BME280;51042;49.696;10.808;2022-07-23T09:44:58;98597.25;;;26.35;56.35
64080;BME280;51042;49.696;10.808;2022-07-23T09:47:25;98596.50;;;26.48;54.89
64080;BME280;51042;49.696;10.808;2022-07-23T09:52:28;98590.19;;;26.28;55.34
64080;BME280;51042;49.696;10.808;2022-07-23T09:54:58;98594.53;;;26.29;55.14
64080;BME280;51042;49.696;10.808;2022-07-23T09:57:25;98589.16;;;26.71;54.89
64080;BME280;51042;49.696;10.808;2022-07-23T09:59:51;98585.13;;;26.53;53.89
64080;BME280;51042;49.696;10.808;2022-07-23T10:02:17;98585.50;;;26.63;54.76
64080;BME280;51042;49.696;10.808;2022-07-23T10:04:43;98587.63;;;26.83;54.10
64080;BME280;51042;49.696;10.808;2022-07-23T10:07:09;98603.22;;;27.23;52.48
64080;BME280;51042;49.696;10.808;2022-07-23T10:09:36;98596.22;;;27.04;51.85
64080;BME280;51042;49.696;10.808;2022-07-23T10:12:05;98590.59;;;27.17;51.83
64080;BME280;51042;49.696;10.808;2022-07-23T10:14:44;98585.13;;;27.32;51.19
64080;BME280;51042;49.696;10.808;2022-07-23T10:17:10;98598.56;;;27.52;50.46
64080;BME280;51042;49.696;10.808;2022-07-23T10:19:35;98595.25;;;27.14;51.21
64080;BME280;51042;49.696;10.808;2022-07-23T10:22:06;98594.75;;;27.37;50.83
64080;BME280;51042;49.696;10.808;2022-07-23T10:30:04;98591.25;;;27.10;50.74
64080;BME280;51042;49.696;10.808;2022-07-23T10:33:02;98584.19;;;27.03;51.31
64080;BME280;51042;49.696;10.808;2022-07-23T10:38:02;98572.50;;;28.01;48.66
64080;BME280;51042;49.696;10.808;2022-07-23T10:40:37;98570.50;;;28.51;47.25
64080;BME280;51042;49.696;10.808;2022-07-23T10:43:18;98566.78;;;27.73;49.05
64080;BME280;51042;49.696;10.808;2022-07-23T10:45:44;98561.03;;;27.99;48.53
64080;BME280;51042;49.696;10.808;2022-07-23T10:59:30;98557.47;;;27.98;46.22
64080;BME280;51042;49.696;10.808;2022-07-23T11:02:20;98554.56;;;27.91;44.96
64080;BME280;51042;49.696;10.808;2022-07-23T11:04:49;98556.44;;;27.88;45.82
64080;BME280;51042;49.696;10.808;2022-07-23T11:07:16;98553.41;;;28.28;45.22
64080;BME280;51042;49.696;10.808;2022-07-23T11:09:42;98553.72;;;28.73;43.78
64080;BME280;51042;49.696;10.808;2022-07-23T11:17:25;98556.22;;;29.72;42.04
64080;BME280;51042;49.696;10.808;2022-07-23T11:22:35;98546.59;;;29.67;41.32
64080;BME280;51042;49.696;10.808;2022-07-23T11:25:01;98553.09;;;30.21;40.80
64080;BME280;51042;49.696;10.808;2022-07-23T11:27:36;98545.50;;;30.46;40.19
64080;BME280;51042;49.696;10.808;2022-07-23T11:30:02;98541.84;;;30.83;39.35
64080;BME280;51042;49.696;10.808;2022-07-23T11:32:29;98547.63;;;31.16;38.38
64080;BME280;51042;49.696;10.808;2022-07-23T11:34:57;98536.78;;;31.30;38.31
64080;BME280;51042;49.696;10.808;2022-07-23T11:37:31;98535.75;;;31.42;37.46
64080;BME280;51042;49.696;10.808;2022-07-23T11:40:08;98540.38;;;31.95;36.99
64080;BME280;51042;49.696;10.808;2022-07-23T11:42:36;98527.50;;;32.19;36.83
64080;BME280;51042;49.696;10.808;2022-07-23T11:45:04;98530.28;;;32.01;36.68
64080;BME280;51042;49.696;10.808;2022-07-23T11:47:30;98521.94;;;31.46;37.68
64080;BME280;51042;49.696;10.808;2022-07-23T11:49:57;98524.69;;;31.29;37.73
64080;BME280;51042;49.696;10.808;2022-07-23T11:52:25;98523.97;;;31.61;36.92
64080;BME280;51042;49.696;10.808;2022-07-23T11:54:58;98519.38;;;30.86;38.62
64080;BME280;51042;49.696;10.808;2022-07-23T11:57:30;98524.91;;;30.68;39.32
64080;BME280;51042;49.696;10.808;2022-07-23T12:00:16;98518.34;;;30.20;38.98
64080;BME280;51042;49.696;10.808;2022-07-23T12:02:45;98520.59;;;29.84;40.51
64080;BME280;51042;49.696;10.808;2022-07-23T12:05:14;98517.59;;;30.12;40.90
64080;BME280;51042;49.696;10.808;2022-07-23T12:07:45;98510.78;;;30.15;40.74
64080;BME280;51042;49.696;10.808;2022-07-23T12:10:18;98519.22;;;29.70;41.51
64080;BME280;51042;49.696;10.808;2022-07-23T12:12:49;98516.25;;;29.90;41.18
64080;BME280;51042;49.696;10.808;2022-07-23T12:17:50;98508.63;;;30.76;39.02
64080;BME280;51042;49.696;10.808;2022-07-23T12:20:30;98506.81;;;31.11;38.96
64080;BME280;51042;49.696;10.808;2022-07-23T12:23:00;98509.63;;;29.80;40.56
64080;BME280;51042;49.696;10.808;2022-07-23T12:25:28;98501.00;;;30.09;40.48
64080;BME280;51042;49.696;10.808;2022-07-23T12:28:00;98506.19;;;30.73;38.72
64080;BME280;51042;49.696;10.808;2022-07-23T12:30:38;98505.88;;;31.09;38.17
64080;BME280;51042;49.696;10.808;2022-07-23T12:33:08;98500.34;;;31.18;38.03
64080;BME280;51042;49.696;10.808;2022-07-23T12:35:36;98501.66;;;31.17;38.15
64080;BME280;51042;49.696;10.808;2022-07-23T12:38:07;98496.41;;;30.43;37.84
64080;BME280;51042;49.696;10.808;2022-07-23T12:40:42;98498.91;;;30.01;39.49
64080;BME280;51042;49.696;10.808;2022-07-23T12:46:03;98494.28;;;30.67;38.84
64080;BME280;51042;49.696;10.808;2022-07-23T12:48:33;98499.28;;;30.13;37.39
64080;BME280;51042;49.696;10.808;2022-07-23T12:51:08;98483.19;;;30.54;38.79
64080;BME280;51042;49.696;10.808;2022-07-23T12:53:40;98484.94;;;30.89;37.84
64080;BME280;51042;49.696;10.808;2022-07-23T12:56:18;98485.69;;;31.70;35.67
64080;BME280;51042;49.696;10.808;2022-07-23T12:58:52;98482.22;;;31.14;35.26
64080;BME280;51042;49.696;10.808;2022-07-23T13:03:53;98477.44;;;31.24;35.60
64080;BME280;51042;49.696;10.808;2022-07-23T13:06:35;98481.88;;;31.10;35.40
64080;BME280;51042;49.696;10.808;2022-07-23T13:09:03;98484.06;;;30.79;35.16
64080;BME280;51042;49.696;10.808;2022-07-23T13:11:29;98493.56;;;30.43;35.64
64080;BME280;51042;49.696;10.808;2022-07-23T13:13:55;98487.50;;;30.47;35.72
64080;BME280;51042;49.696;10.808;2022-07-23T13:16:20;98485.09;;;30.99;35.80
64080;BME280;51042;49.696;10.808;2022-07-23T13:18:46;98490.94;;;31.08;36.06
64080;BME280;51042;49.696;10.808;2022-07-23T13:21:11;98488.75;;;30.84;35.69
64080;BME280;51042;49.696;10.808;2022-07-23T13:23:37;98501.19;;;31.04;35.66
64080;BME280;51042;49.696;10.808;2022-07-23T13:26:02;98494.34;;;30.21;35.32
64080;BME280;51042;49.696;10.808;2022-07-23T13:28:28;98490.56;;;29.88;35.77
64080;BME280;51042;49.696;10.808;2022-07-23T13:30:54;98492.88;;;30.13;35.74